Clodine, Texas
Current Conditions -  °F | °C
As of 8:53 AM on Friday 24 Oct 2014 (Local Time) from KSGR Reporting Station
Clear Clear  
Wind Chill: 62°   Ceiling: Unl
Heat Index: 62°   Visibility: 10mi
Dew Point: 55°   Wind: 6mph
Humidity: 78%   Direction: 30°NNE
Pressure: 30.16"   Gusts: NA
Location:  29.4892°N, 95.6914°W
Report Text: KSGR 241353Z 03005KT 10SM CLR 17/13 A3016 RMK AO2 SLP214 T01670128
Loading
Personal Weather Stations






























Interactive Weather Map
Tropical Storm Tracking
New forecast layout! Learn more

10-Day Weather Forecast

Advertisements
Track Severe Weather on mobile